createdAt,value
2022-10-04T00:01:01.646Z,5.50
2022-10-04T00:03:52.183Z,5.63
2022-10-04T00:06:25.037Z,5.70
2022-10-04T00:09:01.390Z,5.23
2022-10-04T00:11:30.826Z,5.17
2022-10-04T00:13:59.574Z,5.10
2022-10-04T00:16:38.018Z,4.97
2022-10-04T00:19:14.226Z,5.90
2022-10-04T00:21:53.709Z,6.57
2022-10-04T00:24:28.512Z,5.27
2022-10-04T00:27:14.429Z,5.40
2022-10-04T00:29:42.359Z,5.43
2022-10-04T00:32:12.578Z,5.10
2022-10-04T00:34:50.381Z,5.70
2022-10-04T00:37:18.611Z,5.50
2022-10-04T00:39:48.139Z,6.00
2022-10-04T00:42:18.456Z,5.63
2022-10-04T00:45:03.304Z,4.70
2022-10-04T00:47:36.140Z,5.40
2022-10-04T00:50:15.704Z,5.00
2022-10-04T00:52:46.420Z,5.63
2022-10-04T00:55:20.643Z,5.73
2022-10-04T00:57:49.255Z,5.90
2022-10-04T01:00:18.620Z,5.60
2022-10-04T01:02:54.363Z,5.43
2022-10-04T01:05:21.624Z,5.40
2022-10-04T01:07:50.712Z,5.77
2022-10-04T01:10:23.259Z,5.97
2022-10-04T01:12:53.445Z,5.33
2022-10-04T01:15:27.689Z,5.30
2022-10-04T01:18:13.372Z,6.60
2022-10-04T01:20:56.287Z,6.03
2022-10-04T01:23:41.995Z,5.73
2022-10-04T01:26:30.507Z,6.50
2022-10-04T01:29:01.821Z,6.23
2022-10-04T01:31:30.350Z,5.07
2022-10-04T01:33:58.104Z,5.60
2022-10-04T01:36:25.729Z,5.77
2022-10-04T01:38:53.007Z,5.77
2022-10-04T01:41:25.721Z,6.07
2022-10-04T01:43:57.442Z,6.00
2022-10-04T01:46:27.180Z,6.33
2022-10-04T01:48:56.327Z,6.07
2022-10-04T01:51:28.849Z,6.13
2022-10-04T01:54:00.304Z,6.37
2022-10-04T01:56:29.575Z,6.87
2022-10-04T01:59:01.265Z,6.70
2022-10-04T02:01:31.803Z,6.03
2022-10-04T02:04:02.904Z,6.80
2022-10-04T02:06:31.208Z,6.00
2022-10-04T02:08:58.946Z,6.80
2022-10-04T02:11:30.406Z,6.57
2022-10-04T02:13:58.502Z,6.47
2022-10-04T02:16:26.568Z,5.53
2022-10-04T02:18:55.064Z,6.33
2022-10-04T02:21:23.274Z,6.00
2022-10-04T02:23:52.312Z,6.37
2022-10-04T02:26:19.748Z,6.27
2022-10-04T02:28:46.927Z,6.50
2022-10-04T02:31:32.928Z,6.00
2022-10-04T02:34:00.844Z,6.97
2022-10-04T02:36:29.699Z,6.93
2022-10-04T02:39:06.160Z,6.53
2022-10-04T02:41:35.838Z,6.30
2022-10-04T02:44:23.219Z,6.77
2022-10-04T02:47:16.718Z,6.77
2022-10-04T02:49:46.652Z,6.70
2022-10-04T02:52:16.896Z,7.00
2022-10-04T02:54:46.650Z,7.07
2022-10-04T02:57:15.699Z,7.00
2022-10-04T02:59:42.826Z,7.50
2022-10-04T03:02:29.829Z,7.20
2022-10-04T03:05:00.430Z,7.03
2022-10-04T03:07:27.877Z,6.43
2022-10-04T03:09:55.041Z,7.20
2022-10-04T03:12:23.595Z,7.67
2022-10-04T03:14:53.419Z,6.87
2022-10-04T03:17:20.941Z,6.73
2022-10-04T03:19:51.311Z,7.17
2022-10-04T03:22:18.996Z,7.20
2022-10-04T03:24:53.406Z,7.60
2022-10-04T03:27:22.745Z,7.37
2022-10-04T03:29:50.461Z,6.77
2022-10-04T03:32:18.924Z,7.73
2022-10-04T03:35:07.567Z,7.97
2022-10-04T03:37:38.536Z,7.83
2022-10-04T03:40:09.557Z,7.30
2022-10-04T03:42:37.466Z,6.67
2022-10-04T03:45:07.724Z,7.73
2022-10-04T03:47:36.998Z,7.20
2022-10-04T03:50:25.303Z,7.07
2022-10-04T03:52:54.949Z,6.83
2022-10-04T03:55:24.931Z,7.70
2022-10-04T03:57:52.570Z,7.13
2022-10-04T04:00:20.091Z,6.33
2022-10-04T04:02:50.897Z,7.00
2022-10-04T04:05:18.034Z,7.13
2022-10-04T04:07:47.802Z,7.40
2022-10-04T04:10:20.768Z,7.20
2022-10-04T04:12:55.147Z,6.63
2022-10-04T04:15:22.540Z,6.93
2022-10-04T04:17:53.539Z,6.80
2022-10-04T04:20:26.845Z,6.60
2022-10-04T04:23:02.085Z,6.57
2022-10-04T04:25:32.284Z,7.33
2022-10-04T04:28:18.123Z,6.77
2022-10-04T04:30:48.494Z,6.50
2022-10-04T04:33:22.654Z,6.60
2022-10-04T04:35:55.268Z,6.80
2022-10-04T04:38:23.888Z,5.90
2022-10-04T04:40:55.583Z,7.07
2022-10-04T04:43:28.230Z,7.17
2022-10-04T04:46:22.097Z,6.70
2022-10-04T04:48:45.813Z,7.83
2022-10-04T04:51:19.483Z,7.60
2022-10-04T04:53:47.759Z,7.70
2022-10-04T04:56:19.173Z,6.73
2022-10-04T04:58:47.756Z,7.60
2022-10-04T05:01:22.431Z,7.27
2022-10-04T05:04:06.507Z,7.27
2022-10-04T05:06:34.486Z,7.40
2022-10-04T05:09:01.971Z,7.30
2022-10-04T05:11:32.035Z,6.97
2022-10-04T05:14:01.376Z,7.33
2022-10-04T05:16:33.235Z,8.57
2022-10-04T05:19:04.664Z,7.20
2022-10-04T05:21:33.015Z,8.03
2022-10-04T05:24:09.508Z,7.37
2022-10-04T05:26:36.802Z,8.23
2022-10-04T05:29:12.343Z,7.47
2022-10-04T05:31:39.554Z,7.23
2022-10-04T05:34:16.258Z,8.13
2022-10-04T05:36:51.322Z,8.10
2022-10-04T05:39:25.360Z,7.53
2022-10-04T05:41:57.090Z,8.70
2022-10-04T05:44:36.860Z,8.07
2022-10-04T05:47:06.863Z,8.37
2022-10-04T05:49:44.234Z,7.90
2022-10-04T05:52:26.074Z,9.03
2022-10-04T05:55:12.102Z,7.93
2022-10-04T05:57:42.476Z,8.33
2022-10-04T06:00:12.851Z,8.93
2022-10-04T06:02:44.125Z,8.63
2022-10-04T06:05:15.865Z,9.03
2022-10-04T06:07:51.371Z,8.70
2022-10-04T06:10:26.020Z,9.30
2022-10-04T06:13:11.007Z,8.60
2022-10-04T06:15:53.904Z,8.80
2022-10-04T06:18:44.378Z,8.30
2022-10-04T06:21:17.746Z,8.90
2022-10-04T06:24:05.141Z,8.67
2022-10-04T06:26:44.199Z,8.93
2022-10-04T06:29:14.756Z,9.67
2022-10-04T06:31:42.328Z,8.63
2022-10-04T06:34:28.778Z,8.80
2022-10-04T06:37:15.745Z,8.90
2022-10-04T06:40:03.237Z,8.40
2022-10-04T06:42:34.211Z,9.03
2022-10-04T06:45:21.335Z,9.07
2022-10-04T06:47:54.639Z,8.80
2022-10-04T06:50:33.733Z,8.77
2022-10-04T06:53:03.847Z,8.80
2022-10-04T06:55:31.551Z,8.83
2022-10-04T06:58:24.680Z,9.20
2022-10-04T07:00:55.101Z,8.73
2022-10-04T07:03:24.993Z,8.13
2022-10-04T07:05:57.808Z,9.40
2022-10-04T07:08:34.517Z,8.33
2022-10-04T07:11:12.130Z,8.53
2022-10-04T07:13:44.182Z,8.57
2022-10-04T07:16:17.406Z,8.90
2022-10-04T07:18:44.620Z,8.90
2022-10-04T07:21:16.608Z,7.83
2022-10-04T07:23:54.550Z,8.43
2022-10-04T07:26:26.397Z,7.30
2022-10-04T07:29:14.548Z,7.80
2022-10-04T07:31:42.835Z,7.80
2022-10-04T07:34:23.497Z,7.63
2022-10-04T07:37:03.442Z,6.70
2022-10-04T07:39:34.587Z,7.10
2022-10-04T07:42:17.225Z,7.00
2022-10-04T07:44:47.555Z,8.57
2022-10-04T07:47:22.063Z,7.47
2022-10-04T07:49:54.010Z,8.07
2022-10-04T07:52:27.198Z,7.70
2022-10-04T07:55:06.771Z,7.07
2022-10-04T07:57:49.735Z,5.97
2022-10-04T08:00:18.944Z,6.93
2022-10-04T08:03:05.362Z,6.70
2022-10-04T08:05:35.669Z,6.77
2022-10-04T08:08:05.892Z,6.00
2022-10-04T08:10:57.125Z,7.00
2022-10-04T08:13:36.775Z,6.00
2022-10-04T08:16:05.486Z,5.37
2022-10-04T08:18:44.368Z,5.77
2022-10-04T08:21:17.961Z,5.97
2022-10-04T08:23:52.834Z,5.47
2022-10-04T08:26:19.969Z,4.73
2022-10-04T08:29:29.276Z,5.90
2022-10-04T08:32:18.347Z,5.67
2022-10-04T08:35:04.441Z,4.73
2022-10-04T08:37:50.312Z,8.30
2022-10-04T08:40:26.651Z,4.87
2022-10-04T08:42:53.797Z,5.30
2022-10-04T08:45:48.435Z,4.80
2022-10-04T08:48:18.349Z,4.67
2022-10-04T08:50:55.874Z,5.10
2022-10-04T08:53:23.373Z,5.47
2022-10-04T08:56:10.188Z,4.37
2022-10-04T08:59:06.769Z,5.07
2022-10-04T09:01:45.888Z,4.70
2022-10-04T09:04:31.169Z,4.53
2022-10-04T09:07:13.519Z,4.47
2022-10-04T09:09:56.069Z,5.30
2022-10-04T09:12:35.588Z,4.40
2022-10-04T09:15:33.281Z,4.40
2022-10-04T09:18:04.750Z,4.83
2022-10-04T09:20:45.586Z,4.77
2022-10-04T09:23:17.891Z,4.27
2022-10-04T09:25:49.991Z,4.80
2022-10-04T09:28:24.535Z,5.13
2022-10-04T09:30:57.545Z,4.63
2022-10-04T09:33:33.593Z,4.67
2022-10-04T09:36:19.170Z,3.97
2022-10-04T09:39:28.290Z,4.47
2022-10-04T09:42:31.845Z,4.63
2022-10-04T09:45:18.589Z,4.43
2022-10-04T09:47:46.594Z,3.67
2022-10-04T09:50:33.911Z,4.53
2022-10-04T09:53:20.343Z,3.53
2022-10-04T09:55:59.489Z,4.83
2022-10-04T09:58:36.592Z,3.97
2022-10-04T10:01:24.679Z,4.33
2022-10-04T10:04:02.270Z,3.80
2022-10-04T10:06:42.189Z,4.03
2022-10-04T10:09:52.603Z,4.47
2022-10-04T10:12:56.932Z,3.57
2022-10-04T10:15:43.790Z,4.00
2022-10-04T10:18:23.083Z,3.97
2022-10-04T10:21:08.685Z,3.23
2022-10-04T10:23:59.489Z,4.20
2022-10-04T10:26:35.374Z,3.70
2022-10-04T10:29:24.452Z,3.70
2022-10-04T10:32:09.485Z,3.40
2022-10-04T10:34:39.659Z,3.07
2022-10-04T10:37:37.250Z,4.07
2022-10-04T10:40:30.527Z,3.77
2022-10-04T10:43:18.016Z,3.83
2022-10-04T10:49:09.883Z,3.43
2022-10-04T10:51:56.122Z,4.10
2022-10-04T10:57:48.424Z,4.03
2022-10-04T11:00:15.567Z,4.07
2022-10-04T11:02:49.768Z,3.63
2022-10-04T11:05:40.391Z,3.93
2022-10-04T11:08:12.408Z,3.37
2022-10-04T11:10:52.031Z,3.23
2022-10-04T11:13:37.616Z,3.23
2022-10-04T11:16:08.022Z,3.33
2022-10-04T11:18:40.881Z,3.37
2022-10-04T11:21:07.984Z,3.57
2022-10-04T11:23:54.107Z,3.37
2022-10-04T11:26:27.485Z,3.33
2022-10-04T11:29:13.177Z,3.53
2022-10-04T11:31:54.054Z,3.27
2022-10-04T11:34:40.088Z,3.30
2022-10-04T11:37:32.106Z,3.50
2022-10-04T11:40:05.642Z,3.37
2022-10-04T11:42:32.783Z,3.87
2022-10-04T11:45:22.883Z,4.23
2022-10-04T11:47:53.000Z,3.93
2022-10-04T11:50:39.118Z,4.43
2022-10-04T11:53:19.165Z,3.10
2022-10-04T11:56:04.083Z,4.90
2022-10-04T11:58:50.463Z,3.80
2022-10-04T12:01:38.665Z,3.40
2022-10-04T12:04:24.942Z,4.13
2022-10-04T12:07:06.862Z,3.70
2022-10-04T12:09:48.756Z,4.00
2022-10-04T12:12:55.242Z,3.57
2022-10-04T12:15:44.972Z,3.60
2022-10-04T12:18:28.612Z,3.80
2022-10-04T12:20:56.873Z,3.40
2022-10-04T12:23:39.217Z,3.27
2022-10-04T12:26:09.648Z,3.53
2022-10-04T12:28:42.834Z,3.30
2022-10-04T12:31:28.905Z,3.03
2022-10-04T12:34:00.373Z,3.27
2022-10-04T12:36:32.500Z,3.50
2022-10-04T12:39:08.599Z,3.13
2022-10-04T12:41:35.759Z,3.67
2022-10-04T12:44:08.264Z,3.57
2022-10-04T12:46:56.060Z,3.93
2022-10-04T12:49:46.690Z,3.73
2022-10-04T12:52:16.744Z,3.20
2022-10-04T12:54:45.849Z,3.30
2022-10-04T12:57:32.207Z,3.67
2022-10-04T13:00:19.910Z,3.20
2022-10-04T13:02:47.977Z,3.43
2022-10-04T13:05:23.522Z,3.00
2022-10-04T13:08:23.738Z,3.17
2022-10-04T13:10:58.700Z,3.10
2022-10-04T13:13:37.004Z,3.30
2022-10-04T13:19:18.153Z,4.17
2022-10-04T13:21:51.149Z,3.20
2022-10-04T13:24:53.015Z,2.87
2022-10-04T13:27:22.295Z,3.07
2022-10-04T13:30:08.454Z,2.70
2022-10-04T13:32:48.688Z,2.93
2022-10-04T13:35:37.031Z,3.00
2022-10-04T13:38:04.184Z,3.43
2022-10-04T13:40:37.458Z,3.63
2022-10-04T13:43:13.683Z,3.70
2022-10-04T13:45:45.287Z,3.10
2022-10-04T13:48:22.879Z,3.50
2022-10-04T13:51:08.758Z,3.20
2022-10-04T13:53:57.444Z,2.83
2022-10-04T13:56:40.392Z,3.10
2022-10-04T13:59:16.893Z,3.50
2022-10-04T14:01:47.271Z,3.80
2022-10-04T14:04:14.871Z,3.53
2022-10-04T14:07:00.709Z,3.07
2022-10-04T14:09:56.378Z,3.10
2022-10-04T14:12:25.821Z,3.20
2022-10-04T14:14:56.001Z,3.13
2022-10-04T14:17:38.382Z,3.13
2022-10-04T14:20:08.675Z,3.17
2022-10-04T14:22:45.087Z,3.10
2022-10-04T14:25:34.225Z,3.70
2022-10-04T14:28:10.761Z,2.93
2022-10-04T14:30:56.893Z,3.00
2022-10-04T14:33:29.854Z,3.17
2022-10-04T14:36:12.729Z,3.13
2022-10-04T14:38:39.904Z,3.17
2022-10-04T14:41:16.205Z,3.30
2022-10-04T14:44:10.566Z,2.60
2022-10-04T14:46:46.915Z,3.20
2022-10-04T14:49:14.056Z,3.10
2022-10-04T14:51:44.285Z,3.13
2022-10-04T14:54:17.808Z,2.90
2022-10-04T14:57:01.372Z,3.23
2022-10-04T14:59:51.538Z,2.63
2022-10-04T15:02:31.624Z,2.33
2022-10-04T15:05:19.918Z,2.57
2022-10-04T15:07:52.808Z,2.20
2022-10-04T15:10:26.050Z,2.30
2022-10-04T15:13:12.081Z,2.50
2022-10-04T15:16:00.481Z,2.37
2022-10-04T15:18:34.070Z,2.63
2022-10-04T15:21:04.288Z,2.40
2022-10-04T15:23:36.273Z,2.17
2022-10-04T15:26:29.797Z,2.30
2022-10-04T15:29:02.202Z,2.27
2022-10-04T15:31:33.803Z,2.73
2022-10-04T15:34:01.160Z,2.40
2022-10-04T15:36:38.100Z,2.53
2022-10-04T15:39:19.527Z,2.10
2022-10-04T15:41:48.920Z,2.40
2022-10-04T15:44:34.834Z,2.67
2022-10-04T15:47:01.957Z,2.33
2022-10-04T15:49:36.957Z,2.07
2022-10-04T15:52:18.205Z,2.30
2022-10-04T15:55:04.121Z,2.30
2022-10-04T15:57:46.439Z,2.67
2022-10-04T16:00:18.004Z,2.53
2022-10-04T16:03:03.880Z,2.40
2022-10-04T16:05:39.403Z,2.33
2022-10-04T16:08:15.314Z,2.20
2022-10-04T16:11:01.083Z,2.43
2022-10-04T16:13:46.926Z,2.43
2022-10-04T16:16:26.745Z,2.30
2022-10-04T16:18:57.016Z,2.80
2022-10-04T16:21:37.105Z,2.53
2022-10-04T16:24:22.614Z,2.47
2022-10-04T16:26:56.158Z,2.80
2022-10-04T16:29:25.465Z,2.50
2022-10-04T16:31:58.352Z,2.30
2022-10-04T16:34:25.971Z,2.27
2022-10-04T16:37:02.406Z,2.77
2022-10-04T16:39:52.911Z,2.57
2022-10-04T16:42:23.687Z,2.60
2022-10-04T16:44:50.805Z,2.47
2022-10-04T16:47:26.346Z,2.90
2022-10-04T16:49:57.825Z,2.20
2022-10-04T16:52:24.934Z,2.63
2022-10-04T16:54:58.150Z,2.63
2022-10-04T16:57:27.834Z,2.70
2022-10-04T16:59:56.340Z,2.73
2022-10-04T17:02:29.487Z,2.73
2022-10-04T17:05:05.414Z,2.50
2022-10-04T17:07:44.136Z,2.50
2022-10-04T17:10:21.051Z,2.70
2022-10-04T17:13:02.116Z,3.80
2022-10-04T17:15:29.277Z,3.50
2022-10-04T17:18:14.424Z,3.40
2022-10-04T17:20:41.556Z,3.87
2022-10-04T17:23:28.980Z,3.20
2022-10-04T17:25:57.165Z,3.33
2022-10-04T17:28:43.993Z,3.87
2022-10-04T17:31:27.531Z,3.07
2022-10-04T17:34:15.962Z,3.73
2022-10-04T17:36:49.948Z,3.90
2022-10-04T17:39:27.884Z,4.23
2022-10-04T17:42:16.971Z,4.20
2022-10-04T17:44:48.727Z,3.87
2022-10-04T17:47:57.404Z,4.67
2022-10-04T17:50:47.045Z,4.67
2022-10-04T17:53:37.117Z,4.20
2022-10-04T17:56:05.826Z,4.73
2022-10-04T17:58:47.885Z,5.03
2022-10-04T18:01:29.626Z,5.20
2022-10-04T18:04:08.920Z,5.50
2022-10-04T18:06:43.283Z,6.00
2022-10-04T18:09:10.773Z,5.30
2022-10-04T18:11:47.258Z,5.33
2022-10-04T18:14:14.391Z,5.30
2022-10-04T18:16:50.115Z,8.17
2022-10-04T18:19:38.255Z,9.30
2022-10-04T18:22:29.405Z,13.53
2022-10-04T18:25:17.591Z,16.43
2022-10-04T18:28:11.792Z,18.57
2022-10-04T18:30:51.345Z,18.17
2022-10-04T18:33:26.805Z,18.77
2022-10-04T18:36:12.595Z,17.23
2022-10-04T18:38:41.808Z,15.83
2022-10-04T18:41:45.458Z,14.60
2022-10-04T18:44:17.078Z,14.00
2022-10-04T18:46:48.240Z,14.63
2022-10-04T18:49:17.616Z,12.80
2022-10-04T18:51:53.904Z,12.50
2022-10-04T18:54:29.546Z,11.63
2022-10-04T18:57:02.929Z,9.67
2022-10-04T18:59:51.517Z,9.60
2022-10-04T19:02:38.206Z,8.57
2022-10-04T19:05:15.340Z,10.07
2022-10-04T19:07:42.494Z,9.20
2022-10-04T19:10:28.491Z,11.23
2022-10-04T19:13:02.679Z,9.97
2022-10-04T19:16:04.313Z,10.17
2022-10-04T19:18:46.743Z,9.73
2022-10-04T19:21:20.327Z,7.77
2022-10-04T19:24:06.221Z,7.10
2022-10-04T19:26:37.949Z,7.40
2022-10-04T19:29:11.227Z,7.50
2022-10-04T19:31:51.524Z,7.73
2022-10-04T19:34:25.921Z,8.00
2022-10-04T19:37:00.822Z,7.90
2022-10-04T19:39:27.915Z,8.20
2022-10-04T19:42:09.275Z,7.00
2022-10-04T19:44:40.317Z,7.60
2022-10-04T19:47:33.570Z,6.00
2022-10-04T19:50:07.380Z,7.67
2022-10-04T19:52:45.652Z,6.97
2022-10-04T19:55:21.068Z,6.47
2022-10-04T19:57:52.254Z,7.03
2022-10-04T20:00:21.699Z,6.17
2022-10-04T20:02:49.405Z,6.43
2022-10-04T20:05:28.054Z,6.33
2022-10-04T20:08:06.130Z,6.23
2022-10-04T20:10:35.004Z,6.13
2022-10-04T20:13:05.823Z,6.30
2022-10-04T20:15:36.295Z,6.30
2022-10-04T20:18:23.362Z,6.17
2022-10-04T20:20:57.321Z,6.37
2022-10-04T20:23:37.069Z,6.13
2022-10-04T20:26:08.192Z,6.17
2022-10-04T20:28:42.037Z,6.03
2022-10-04T20:31:10.306Z,7.37
2022-10-04T20:33:39.007Z,6.77
2022-10-04T20:36:09.430Z,6.97
2022-10-04T20:38:49.111Z,6.20
2022-10-04T20:41:28.704Z,6.77
2022-10-04T20:43:57.283Z,7.67
2022-10-04T20:46:25.724Z,7.37
2022-10-04T20:48:54.209Z,6.40
2022-10-04T20:51:22.733Z,7.77
2022-10-04T20:53:53.067Z,7.00
2022-10-04T20:56:20.230Z,7.70
2022-10-04T20:59:05.281Z,7.00
2022-10-04T21:01:36.536Z,8.17
2022-10-04T21:04:30.263Z,8.10
2022-10-04T21:06:58.538Z,8.03
2022-10-04T21:09:27.528Z,8.20
2022-10-04T21:11:55.751Z,7.77
2022-10-04T21:14:27.303Z,8.20
2022-10-04T21:16:59.971Z,8.07
2022-10-04T21:19:29.607Z,7.73
2022-10-04T21:21:57.159Z,8.27
2022-10-04T21:24:29.779Z,7.90
2022-10-04T21:26:57.543Z,7.67
2022-10-04T21:29:24.993Z,7.93
2022-10-04T21:31:52.176Z,8.50
2022-10-04T21:34:41.015Z,7.90
2022-10-04T21:37:06.631Z,8.70
2022-10-04T21:39:33.766Z,8.60
2022-10-04T21:42:01.035Z,8.70
2022-10-04T21:44:28.149Z,7.57
2022-10-04T21:46:55.315Z,8.70
2022-10-04T21:49:22.483Z,8.43
2022-10-04T21:51:49.736Z,8.67
2022-10-04T21:54:16.863Z,8.00
2022-10-04T21:56:44.382Z,8.57
2022-10-04T21:59:11.722Z,9.00
2022-10-04T22:01:38.994Z,8.40
2022-10-04T22:04:06.456Z,7.70
2022-10-04T22:06:33.619Z,8.63
2022-10-04T22:09:00.900Z,8.63
2022-10-04T22:11:28.073Z,7.80
2022-10-04T22:13:55.341Z,8.47
2022-10-04T22:16:22.580Z,8.17
2022-10-04T22:18:49.799Z,8.27
2022-10-04T22:21:17.236Z,8.70
2022-10-04T22:23:45.114Z,8.63
2022-10-04T22:26:13.683Z,8.53
2022-10-04T22:28:43.914Z,8.00
2022-10-04T22:31:16.069Z,9.20
2022-10-04T22:33:44.900Z,8.07
2022-10-04T22:36:20.869Z,8.83
2022-10-04T22:38:58.053Z,9.27
2022-10-04T22:41:28.135Z,8.53
2022-10-04T22:43:57.481Z,9.27
2022-10-04T22:46:25.879Z,8.80
2022-10-04T22:48:53.243Z,9.47
2022-10-04T22:51:20.589Z,8.80
2022-10-04T22:53:48.595Z,10.00
2022-10-04T22:56:15.832Z,9.43
2022-10-04T22:58:44.155Z,10.23
2022-10-04T23:01:15.616Z,9.57
2022-10-04T23:03:46.285Z,10.00
2022-10-04T23:06:14.392Z,9.97
2022-10-04T23:08:45.156Z,9.57
2022-10-04T23:11:13.450Z,10.20
2022-10-04T23:13:40.598Z,9.97
2022-10-04T23:16:12.988Z,10.30
2022-10-04T23:18:40.540Z,10.57
2022-10-04T23:21:15.905Z,9.37
2022-10-04T23:23:43.093Z,9.53
2022-10-04T23:26:14.443Z,9.77
2022-10-04T23:28:42.075Z,9.50
2022-10-04T23:31:16.669Z,9.53
2022-10-04T23:33:44.027Z,8.87
2022-10-04T23:36:15.575Z,8.60
2022-10-04T23:38:46.100Z,9.73
2022-10-04T23:41:13.671Z,9.70
2022-10-04T23:43:40.971Z,9.07
2022-10-04T23:46:13.504Z,9.73
2022-10-04T23:48:40.862Z,9.30
2022-10-04T23:51:11.723Z,9.80
2022-10-04T23:53:39.086Z,8.90
2022-10-04T23:56:09.439Z,8.93
2022-10-04T23:58:38.438Z,9.10
